Time;durP1;ratioP1;P1;durP2;ratioP2;P2;SDS_P1;SDS_P2;PMS_P1;PMS_P2;Temp;Humidity;BMP_temperature;BMP_pressure;BME280_temperature;BME280_humidity;BME280_pressure;Samples;Min_cycle;Max_cycle;Signal;HPM_P1;HPM_P2
2021/05/26 00:00:40;;;;;;;2.99;1.68;;;;;;;16.86;66.46;101249.79;464185;112;925461;-72
2021/05/26 00:01:45;;;;;;;3.99;1.67;;;;;;;16.85;66.22;101250.86;463400;112;922304;-74
2021/05/26 00:02:48;;;;;;;3.19;1.22;;;;;;;16.85;66.05;101252.77;464187;112;930302;-71
2021/05/26 00:03:53;;;;;;;3.94;1.54;;;;;;;16.83;65.86;101254.92;464026;112;930298;-70
2021/05/26 00:04:57;;;;;;;1.78;1.09;;;;;;;16.81;65.68;101257.94;463674;112;923955;-69
2021/05/26 00:06:01;;;;;;;4.13;1.49;;;;;;;16.79;65.50;101254.57;463354;112;923622;-72
2021/05/26 00:07:05;;;;;;;2.24;1.14;;;;;;;16.78;65.22;101254.80;462625;112;925649;-70
2021/05/26 00:08:09;;;;;;;3.40;1.40;;;;;;;16.76;65.05;101252.28;462744;112;930115;-70
2021/05/26 00:09:13;;;;;;;2.95;1.64;;;;;;;16.75;64.91;101258.05;462250;112;923247;-71
2021/05/26 00:10:20;;;;;;;2.57;1.38;;;;;;;16.72;64.82;101248.34;461815;112;932183;-71
2021/05/26 00:11:24;;;;;;;2.08;1.30;;;;;;;16.71;64.86;101254.07;463041;112;922637;-71
2021/05/26 00:12:28;;;;;;;3.15;1.46;;;;;;;16.69;64.76;101254.33;462535;112;923234;-72
2021/05/26 00:13:33;;;;;;;3.98;1.60;;;;;;;16.67;64.73;101250.97;462317;112;924602;-70
2021/05/26 00:14:37;;;;;;;1.91;1.12;;;;;;;16.66;64.80;101257.55;464611;112;926681;-72
2021/05/26 00:15:40;;;;;;;2.61;1.52;;;;;;;16.63;64.90;101255.28;465148;112;922480;-71
2021/05/26 00:16:45;;;;;;;2.32;1.37;;;;;;;16.57;65.08;101248.78;464934;112;922750;-71
2021/05/26 00:17:48;;;;;;;2.81;1.51;;;;;;;16.52;65.22;101253.33;463737;112;930586;-72
2021/05/26 00:18:54;;;;;;;3.53;1.31;;;;;;;16.46;65.46;101246.02;463738;112;931998;-70
2021/05/26 00:19:59;;;;;;;5.51;1.60;;;;;;;16.42;65.68;101247.57;463934;112;930549;-71
2021/05/26 00:21:05;;;;;;;4.71;1.57;;;;;;;16.39;65.87;101248.03;464892;112;922560;-72
2021/05/26 00:22:11;;;;;;;6.47;2.14;;;;;;;16.37;66.04;101252.95;463628;112;922462;-71
2021/05/26 00:23:15;;;;;;;2.72;1.51;;;;;;;16.36;66.12;101243.01;464412;112;922577;-70
2021/05/26 00:24:18;;;;;;;4.06;1.76;;;;;;;16.34;66.09;101245.98;462902;112;922783;-72
2021/05/26 00:25:23;;;;;;;2.21;1.40;;;;;;;16.35;66.13;101246.83;464762;112;924488;-72
2021/05/26 00:26:27;;;;;;;2.92;1.60;;;;;;;16.32;66.04;101252.82;463320;112;923904;-74
2021/05/26 00:27:30;;;;;;;8.29;1.52;;;;;;;16.28;66.01;101258.78;463618;112;922570;-72
2021/05/26 00:28:34;;;;;;;4.08;1.49;;;;;;;16.25;66.06;101251.02;463126;112;923128;-74
2021/05/26 00:29:38;;;;;;;3.22;1.44;;;;;;;16.22;66.10;101258.88;463080;112;930190;-72
2021/05/26 00:30:46;;;;;;;5.31;1.68;;;;;;;16.19;66.17;101243.70;462645;112;922769;-71
2021/05/26 00:31:48;;;;;;;3.95;1.69;;;;;;;16.17;66.24;101250.50;462645;112;922659;-71
2021/05/26 00:32:52;;;;;;;3.03;1.69;;;;;;;16.12;66.24;101253.95;463099;112;922656;-71
2021/05/26 00:33:56;;;;;;;4.37;1.63;;;;;;;16.07;66.29;101250.23;462521;112;930297;-71
2021/05/26 00:35:00;;;;;;;2.59;1.67;;;;;;;16.02;66.36;101258.35;462369;112;932641;-72
2021/05/26 00:36:08;;;;;;;7.41;1.96;;;;;;;15.95;66.54;101255.69;444051;117;930413;-69
2021/05/26 00:37:12;;;;;;;3.99;1.71;;;;;;;15.91;66.66;101251.74;445413;112;922980;-70
2021/05/26 00:38:17;;;;;;;2.89;1.91;;;;;;;15.87;66.98;101253.29;463971;112;931565;-73
2021/05/26 00:39:21;;;;;;;2.46;1.83;;;;;;;15.85;67.22;101247.17;463106;112;930404;-72
2021/05/26 00:40:25;;;;;;;4.84;2.38;;;;;;;15.84;67.37;101256.48;463435;112;923084;-73
2021/05/26 00:41:30;;;;;;;4.83;2.16;;;;;;;15.84;67.49;101250.98;463499;111;922592;-70
2021/05/26 00:42:33;;;;;;;5.08;1.88;;;;;;;15.84;67.63;101251.83;467124;111;930399;-72
2021/05/26 00:43:38;;;;;;;5.81;2.63;;;;;;;15.85;67.65;101259.02;467561;111;931230;-71
2021/05/26 00:44:42;;;;;;;3.46;2.29;;;;;;;15.86;67.80;101257.11;467852;111;931985;-70
2021/05/26 00:45:46;;;;;;;3.44;2.18;;;;;;;15.88;67.92;101251.38;466166;111;922658;-71
2021/05/26 00:46:50;;;;;;;3.87;2.26;;;;;;;15.88;67.91;101254.13;466528;111;922519;-71
2021/05/26 00:47:54;;;;;;;5.55;2.62;;;;;;;15.88;67.88;101254.13;467421;111;930478;-72
2021/05/26 00:48:57;;;;;;;4.28;2.13;;;;;;;15.87;67.87;101249.70;466101;111;930472;-72
2021/05/26 00:50:04;;;;;;;3.04;2.27;;;;;;;15.83;67.87;101252.89;467288;111;930134;-70
2021/05/26 00:51:08;;;;;;;6.54;2.72;;;;;;;15.81;67.90;101251.47;466850;111;923306;-71
2021/05/26 00:52:13;;;;;;;3.48;2.51;;;;;;;15.78;67.93;101255.51;466748;111;922392;-71
2021/05/26 00:53:17;;;;;;;4.58;2.58;;;;;;;15.75;67.89;101255.14;466402;111;922949;-71
2021/05/26 00:54:21;;;;;;;4.26;2.21;;;;;;;15.72;67.99;101250.09;467622;111;922400;-71
2021/05/26 00:55:25;;;;;;;2.81;2.21;;;;;;;15.70;68.19;101255.00;467294;111;930445;-71
2021/05/26 00:56:33;;;;;;;8.62;2.50;;;;;;;15.69;68.34;101256.07;466313;111;922603;-70
2021/05/26 00:57:38;;;;;;;5.67;2.53;;;;;;;15.67;68.40;101261.80;465821;111;923885;-70
2021/05/26 00:58:44;;;;;;;4.91;2.98;;;;;;;15.67;68.44;101256.30;466736;111;924405;-70
2021/05/26 00:59:49;;;;;;;3.57;2.47;;;;;;;15.66;68.57;101256.52;465882;111;922617;-71
2021/05/26 01:00:55;;;;;;;5.52;2.84;;;;;;;15.66;68.66;101264.77;466680;111;926280;-70
2021/05/26 01:02:00;;;;;;;5.07;2.63;;;;;;;15.67;68.72;101260.95;460219;113;923141;-70
2021/05/26 01:03:05;;;;;;;3.21;2.33;;;;;;;15.68;68.77;101268.13;459427;111;923289;-68
2021/05/26 01:04:11;;;;;;;4.66;2.64;;;;;;;15.69;68.74;101264.31;466387;111;930608;-72
2021/05/26 01:05:20;;;;;;;4.63;2.75;;;;;;;15.70;68.64;101261.34;468846;111;922858;-71
2021/05/26 01:06:25;;;;;;;7.58;3.12;;;;;;;15.69;68.58;101259.66;467237;111;924033;-71
2021/05/26 01:07:29;;;;;;;5.76;2.84;;;;;;;15.69;68.63;101258.81;465519;111;924072;-69
2021/05/26 01:08:36;;;;;;;5.99;2.93;;;;;;;15.67;68.74;101264.55;466001;111;924140;-70
2021/05/26 01:09:40;;;;;;;4.32;3.15;;;;;;;15.69;68.80;101258.81;467883;111;922585;-72
2021/05/26 01:10:45;;;;;;;4.03;2.73;;;;;;;15.70;68.86;101257.75;467527;111;922659;-71
2021/05/26 01:11:51;;;;;;;5.99;2.79;;;;;;;15.71;68.88;101263.00;466851;111;923872;-69
2021/05/26 01:12:55;;;;;;;6.26;3.08;;;;;;;15.73;68.80;101262.77;466799;111;922695;-71
2021/05/26 01:13:59;;;;;;;5.53;2.86;;;;;;;15.73;68.75;101262.77;468652;111;931938;-73
2021/05/26 01:15:05;;;;;;;5.40;2.52;;;;;;;15.73;68.77;101260.02;467890;111;922987;-71
2021/05/26 01:16:09;;;;;;;4.93;2.83;;;;;;;15.72;68.79;101258.34;466734;111;922565;-72
2021/05/26 01:17:14;;;;;;;7.71;3.10;;;;;;;15.69;68.90;101264.31;466062;111;922531;-70
2021/05/26 01:18:24;;;;;;;5.17;3.05;;;;;;;15.66;69.02;101262.02;466705;111;922654;-71
2021/05/26 01:19:29;;;;;;;3.75;2.75;;;;;;;15.64;69.15;101261.42;466242;111;922782;-70
2021/05/26 01:20:34;;;;;;;6.99;3.14;;;;;;;15.62;69.29;101263.55;447394;115;922523;-71
2021/05/26 01:21:38;;;;;;;7.15;3.43;;;;;;;15.61;69.43;101267.37;448916;116;923131;-71
2021/05/26 01:22:42;;;;;;;5.28;2.70;;;;;;;15.62;69.49;101260.81;448362;116;925216;-72
2021/05/26 01:23:47;;;;;;;4.82;2.72;;;;;;;15.62;69.49;101263.55;466880;111;922880;-71
2021/05/26 01:24:51;;;;;;;3.18;2.51;;;;;;;15.61;69.48;101264.63;467588;111;922786;-72
2021/05/26 01:25:56;;;;;;;5.17;2.49;;;;;;;15.59;69.48;101264.03;466825;111;930516;-71
2021/05/26 01:27:00;;;;;;;5.63;2.57;;;;;;;15.57;69.43;101260.66;467229;111;926416;-71
2021/05/26 01:28:05;;;;;;;3.43;2.01;;;;;;;15.55;69.41;101263.63;467038;111;924102;-71
2021/05/26 01:29:08;;;;;;;4.55;2.89;;;;;;;15.53;69.38;101262.20;466834;111;924235;-72
2021/05/26 01:30:14;;;;;;;4.35;2.96;;;;;;;15.51;69.36;101264.30;466840;111;923063;-72
2021/05/26 01:31:18;;;;;;;6.97;2.44;;;;;;;15.48;69.44;101262.87;468012;111;930710;-70
2021/05/26 01:32:24;;;;;;;4.06;2.38;;;;;;;15.47;69.57;101263.94;466815;111;922607;-70
2021/05/26 01:33:28;;;;;;;6.41;2.49;;;;;;;15.45;69.64;101258.66;467650;111;922635;-71
2021/05/26 01:34:33;;;;;;;4.21;2.62;;;;;;;15.45;69.70;101266.91;467569;111;930667;-71
2021/05/26 01:35:40;;;;;;;4.25;2.48;;;;;;;15.44;69.67;101264.37;467405;111;923007;-71
2021/05/26 01:36:46;;;;;;;4.35;2.37;;;;;;;15.42;69.66;101264.63;465145;112;922989;-72
2021/05/26 01:37:50;;;;;;;4.71;2.34;;;;;;;15.40;69.72;101266.75;465850;111;923173;-71
2021/05/26 01:38:54;;;;;;;2.40;1.70;;;;;;;15.38;69.84;101263.39;465474;111;922559;-71
2021/05/26 01:39:59;;;;;;;4.63;2.39;;;;;;;15.39;69.93;101259.58;467037;111;925277;-70
2021/05/26 01:41:03;;;;;;;2.76;2.25;;;;;;;15.40;69.99;101252.17;466123;111;924068;-72
2021/05/26 01:42:09;;;;;;;4.56;2.13;;;;;;;15.40;70.01;101258.52;465401;111;923028;-71
2021/05/26 01:43:14;;;;;;;3.65;2.16;;;;;;;15.40;70.01;101253.02;456875;114;923736;-73
2021/05/26 01:44:18;;;;;;;4.41;2.24;;;;;;;15.41;70.05;101245.61;460775;112;922966;-72
2021/05/26 01:45:24;;;;;;;3.78;2.25;;;;;;;15.42;70.10;101259.13;466730;111;923511;-74
2021/05/26 01:46:30;;;;;;;2.75;2.02;;;;;;;15.44;70.17;101250.64;467942;111;925537;-72
2021/05/26 01:47:35;;;;;;;4.35;2.34;;;;;;;15.45;70.09;101258.66;467662;111;923660;-71
2021/05/26 01:48:39;;;;;;;5.08;2.35;;;;;;;15.45;70.05;101247.66;467727;111;926425;-71
2021/05/26 01:49:44;;;;;;;4.95;2.06;;;;;;;15.45;69.97;101255.06;468225;111;931507;-70
2021/05/26 01:50:50;;;;;;;5.11;2.57;;;;;;;15.43;69.93;101255.32;467147;111;932282;-70
2021/05/26 01:51:54;;;;;;;2.43;2.21;;;;;;;15.44;70.04;101256.13;467831;111;922967;-70
2021/05/26 01:53:05;;;;;;;6.05;2.12;;;;;;;15.45;70.08;101250.41;466322;111;925288;-71
2021/05/26 01:54:11;;;;;;;6.63;2.00;;;;;;;15.47;70.14;101254.84;467451;111;923208;-71
2021/05/26 01:55:15;;;;;;;3.50;2.30;;;;;;;15.49;70.06;101255.47;467349;111;922426;-73
2021/05/26 01:56:24;;;;;;;5.74;2.29;;;;;;;15.49;69.96;101255.47;467347;111;932215;-71
2021/05/26 01:57:36;;;;;;;3.38;2.22;;;;;;;15.49;69.88;101249.97;467156;111;923043;-69
2021/05/26 01:58:40;;;;;;;7.28;1.84;;;;;;;15.48;69.88;101253.78;466515;111;922458;-72
2021/05/26 01:59:45;;;;;;;4.79;2.24;;;;;;;15.47;69.87;101249.35;466207;111;923969;-70
2021/05/26 02:00:53;;;;;;;6.08;2.07;;;;;;;15.46;69.87;101248.51;465655;111;924065;-72
2021/05/26 02:01:58;;;;;;;2.81;2.24;;;;;;;15.43;69.92;101249.83;466407;111;924041;-73
2021/05/26 02:03:03;;;;;;;5.53;1.92;;;;;;;15.44;70.00;101250.64;466887;111;930383;-71
2021/05/26 02:04:08;;;;;;;8.08;2.29;;;;;;;15.43;70.03;101254.48;465702;111;925530;-70
2021/05/26 02:05:14;;;;;;;7.94;2.83;;;;;;;15.43;70.08;101254.48;466446;111;923985;-72
2021/05/26 02:06:21;;;;;;;4.46;2.24;;;;;;;15.43;70.12;101249.83;465749;111;922460;-71
2021/05/26 02:07:25;;;;;;;4.54;2.34;;;;;;;15.48;70.08;101253.78;467329;111;923124;-72
2021/05/26 02:08:29;;;;;;;4.36;2.50;;;;;;;15.51;70.03;101254.15;467133;111;922558;-72
2021/05/26 02:09:35;;;;;;;6.19;2.51;;;;;;;15.55;69.88;101255.39;466860;111;922993;-72
2021/05/26 02:12:22;;;;;;;2.68;2.42;;;;;;;15.62;69.70;101253.41;457768;114;923149;-73
2021/05/26 02:13:27;;;;;;;5.69;2.86;;;;;;;15.65;69.51;101249.37;460420;111;922663;-71
2021/05/26 02:14:33;;;;;;;3.73;1.95;;;;;;;15.67;69.35;101250.80;466494;111;922449;-72
2021/05/26 02:15:38;;;;;;;7.85;2.39;;;;;;;15.70;69.24;101260.50;466967;111;922491;-70
2021/05/26 02:16:44;;;;;;;5.10;2.60;;;;;;;15.72;69.08;101256.44;466572;111;930675;-73
2021/05/26 02:17:50;;;;;;;3.82;2.18;;;;;;;15.74;68.99;101261.70;465848;111;922544;-71
2021/05/26 02:18:56;;;;;;;2.42;1.82;;;;;;;15.77;68.86;101258.48;467881;111;922640;-71
2021/05/26 02:20:08;;;;;;;4.47;1.85;;;;;;;15.78;68.73;101257.41;466575;111;922437;-71
2021/05/26 02:21:13;;;;;;;5.94;2.25;;;;;;;15.78;68.67;101254.66;467373;111;923147;-72
2021/05/26 02:22:19;;;;;;;5.22;1.85;;;;;;;15.78;68.65;101254.66;467247;111;922963;-73
2021/05/26 02:23:23;;;;;;;4.46;1.92;;;;;;;15.77;68.63;101258.48;465903;111;923621;-71
2021/05/26 02:24:36;;;;;;;2.85;1.89;;;;;;;15.77;68.51;101256.57;454926;114;924188;-71
2021/05/26 02:25:41;;;;;;;5.20;1.91;;;;;;;15.77;68.48;101261.23;457324;111;922640;-71
2021/05/26 02:26:46;;;;;;;7.79;2.09;;;;;;;15.78;68.49;101262.91;465676;111;922611;-72
2021/05/26 02:27:49;;;;;;;3.06;1.64;;;;;;;15.79;68.43;101259.09;467493;111;922996;-72
2021/05/26 02:28:55;;;;;;;4.34;1.89;;;;;;;15.80;68.34;101253.38;465234;111;922935;-72
2021/05/26 02:30:03;;;;;;;5.37;1.86;;;;;;;15.82;68.29;101251.21;465971;111;922902;-71
2021/05/26 02:31:09;;;;;;;5.64;2.03;;;;;;;15.83;68.13;101263.89;468333;111;923021;-72
2021/05/26 02:32:22;;;;;;;4.97;2.01;;;;;;;15.91;68.08;101257.24;475136;108;1196809;-72
2021/05/26 02:33:25;;;;;;;6.75;2.24;;;;;;;15.78;68.01;101261.01;468405;111;925534;-72
2021/05/26 02:34:30;;;;;;;3.75;1.71;;;;;;;15.75;68.02;101263.39;472609;109;924092;-71
2021/05/26 02:35:34;;;;;;;2.85;2.08;;;;;;;15.71;68.08;101271.25;472521;111;922404;-72
2021/05/26 02:36:39;;;;;;;3.57;1.65;;;;;;;15.66;68.20;101265.61;469314;111;925875;-72
2021/05/26 02:37:43;;;;;;;3.53;1.96;;;;;;;15.62;68.30;101272.64;465831;111;925354;-72
2021/05/26 02:38:47;;;;;;;3.89;2.13;;;;;;;15.58;68.40;101262.34;465813;111;922474;-71
2021/05/26 02:39:51;;;;;;;3.33;1.82;;;;;;;15.54;68.44;101269.39;456914;114;924500;-71
2021/05/26 02:40:55;;;;;;;4.98;2.83;;;;;;;15.50;68.57;101271.70;466458;111;930358;-71
2021/05/26 02:42:01;;;;;;;5.09;2.02;;;;;;;15.47;68.65;101272.17;465669;110;925583;-72
2021/05/26 02:43:16;;;;;;;6.22;2.40;;;;;;;15.43;68.78;101268.22;461297;113;923518;-73
2021/05/26 02:44:30;;;;;;;4.66;2.07;;;;;;;15.40;68.90;101269.50;462659;111;922494;-73
2021/05/26 02:45:34;;;;;;;6.56;2.24;;;;;;;15.37;69.09;101277.37;466407;111;923223;-71
2021/05/26 02:46:39;;;;;;;3.65;2.78;;;;;;;15.35;69.20;101268.52;466600;111;922536;-71
2021/05/26 02:47:43;;;;;;;6.51;2.47;;;;;;;15.33;69.39;101274.23;467427;111;922237;-72
2021/05/26 02:48:47;;;;;;;6.00;2.34;;;;;;;15.31;69.47;101268.14;466149;111;930524;-70
2021/05/26 02:49:52;;;;;;;8.01;2.62;;;;;;;15.30;69.54;101271.95;467607;111;931947;-70
2021/05/26 02:50:56;;;;;;;3.09;1.85;;;;;;;15.30;69.63;101274.70;467741;111;930442;-71
2021/05/26 02:52:00;;;;;;;2.68;1.95;;;;;;;15.29;69.70;101278.52;467090;111;923060;-71
2021/05/26 02:53:05;;;;;;;3.19;2.01;;;;;;;15.30;69.80;101276.61;466172;111;924788;-73
2021/05/26 02:54:10;;;;;;;4.53;2.13;;;;;;;15.32;69.95;101279.98;466576;111;925349;-72
2021/05/26 02:55:17;;;;;;;5.84;2.21;;;;;;;15.35;70.04;101282.25;464523;111;924431;-71
2021/05/26 02:56:23;;;;;;;3.77;1.81;;;;;;;15.38;70.11;101282.62;461926;111;924052;-70
2021/05/26 02:57:36;;;;;;;4.09;2.21;;;;;;;15.43;70.15;101279.21;438256;117;924214;-70
2021/05/26 02:58:42;;;;;;;6.23;1.72;;;;;;;15.49;70.22;101280.20;460579;111;924005;-68
2021/05/26 03:00:06;;;;;;;7.14;2.55;;;;;;;15.54;70.02;101280.38;465736;111;922523;-70
2021/05/26 03:01:12;;;;;;;3.67;2.03;;;;;;;15.56;69.77;101273.56;465006;111;922564;-73
2021/05/26 03:02:26;;;;;;;3.32;1.96;;;;;;;15.58;69.64;101276.09;464473;111;924186;-73
2021/05/26 03:03:36;;;;;;;3.62;2.32;;;;;;;15.59;69.59;101270.38;464994;111;924007;-72
2021/05/26 03:04:41;;;;;;;2.61;2.06;;;;;;;15.60;69.47;101272.02;466451;111;923538;-71
2021/05/26 03:05:45;;;;;;;3.96;2.39;;;;;;;15.60;69.39;101277.52;457102;114;922579;-72
2021/05/26 03:06:49;;;;;;;4.06;2.44;;;;;;;15.60;69.37;101271.22;456748;113;924136;-71
2021/05/26 03:07:53;;;;;;;14.13;3.13;;;;;;;15.61;69.37;101278.37;466478;111;924026;-71
2021/05/26 03:08:57;;;;;;;4.81;2.08;;;;;;;15.62;69.38;101282.80;465462;111;924068;-71
2021/05/26 03:10:06;;;;;;;4.64;2.74;;;;;;;15.65;69.32;101285.10;465859;111;922477;-71
2021/05/26 03:11:11;;;;;;;7.49;2.37;;;;;;;15.68;69.50;101287.38;456816;114;922661;-70
2021/05/26 03:12:33;;;;;;;3.92;2.19;;;;;;;15.71;69.73;101282.24;467687;111;923733;-70
2021/05/26 03:13:37;;;;;;;4.05;2.08;;;;;;;15.78;69.74;101283.00;467399;111;922668;-72
2021/05/26 03:14:41;;;;;;;9.19;2.24;;;;;;;15.84;69.59;101289.48;465661;111;923105;-72
2021/05/26 03:15:45;;;;;;;4.04;1.96;;;;;;;15.89;69.44;101286.88;465140;111;930494;-72
2021/05/26 03:16:50;;;;;;;3.04;1.96;;;;;;;15.96;69.24;101282.13;465784;111;922996;-71
2021/05/26 03:17:54;;;;;;;5.41;2.01;;;;;;;16.02;68.88;101286.70;463647;111;924064;-72
2021/05/26 03:18:59;;;;;;;4.17;2.11;;;;;;;16.08;68.68;101280.27;464958;111;930471;-71
2021/05/26 03:20:05;;;;;;;4.09;1.92;;;;;;;16.17;68.52;101289.02;465160;111;930767;-70
2021/05/26 03:21:20;;;;;;;5.26;2.06;;;;;;;16.22;68.23;101284.48;465285;111;922499;-71
2021/05/26 03:22:26;;;;;;;4.03;1.93;;;;;;;16.28;67.84;101283.55;461747;111;922668;-70
2021/05/26 03:23:48;;;;;;;4.19;2.24;;;;;;;16.34;67.44;101289.19;465826;111;922461;-72
2021/05/26 03:24:57;;;;;;;4.59;1.69;;;;;;;16.38;67.09;101288.47;464368;111;922492;-71
2021/05/26 03:26:00;;;;;;;6.53;2.26;;;;;;;16.41;66.84;101282.52;456305;114;927300;-71
2021/05/26 03:27:06;;;;;;;4.68;1.69;;;;;;;16.45;66.70;101285.62;457884;111;924483;-70
2021/05/26 03:28:10;;;;;;;3.63;2.02;;;;;;;16.47;66.65;101295.34;466018;111;931989;-73
2021/05/26 03:29:18;;;;;;;7.48;2.11;;;;;;;16.49;66.53;101292.32;466320;111;922354;-72
2021/05/26 03:30:25;;;;;;;3.08;1.69;;;;;;;16.50;66.42;101291.25;464237;112;922612;-73
2021/05/26 03:31:31;;;;;;;3.44;1.79;;;;;;;16.50;66.29;101289.34;465949;111;930405;-71
2021/05/26 03:32:38;;;;;;;7.65;1.98;;;;;;;16.53;65.85;101291.64;456413;114;923033;-72
2021/05/26 03:33:42;;;;;;;3.05;1.56;;;;;;;16.55;65.69;101285.88;448781;116;923234;-70
2021/05/26 03:34:46;;;;;;;3.16;1.76;;;;;;;16.59;65.56;101289.88;456479;113;922813;-71
2021/05/26 03:35:50;;;;;;;4.37;1.76;;;;;;;16.60;65.57;101295.13;466453;111;923128;-72
2021/05/26 03:36:54;;;;;;;5.25;2.05;;;;;;;16.63;65.69;101297.42;467731;111;930388;-72
2021/05/26 03:37:57;;;;;;;3.68;2.14;;;;;;;16.66;65.68;101282.33;467552;111;924063;-74
2021/05/26 03:39:04;;;;;;;4.01;1.87;;;;;;;16.68;65.35;101294.80;465868;111;930217;-74
2021/05/26 03:40:11;;;;;;;5.21;2.16;;;;;;;16.72;65.28;101302.56;464768;111;922541;-71
2021/05/26 03:41:16;;;;;;;3.86;2.35;;;;;;;16.75;65.22;101293.84;465675;111;922359;-71
2021/05/26 03:42:20;;;;;;;8.65;3.16;;;;;;;16.76;65.33;101292.78;465731;111;922397;-71
2021/05/26 03:43:24;;;;;;;11.22;2.46;;;;;;;16.78;65.30;101302.46;465308;111;922671;-71
2021/05/26 03:44:30;;;;;;;4.80;2.24;;;;;;;16.80;65.04;101288.46;465542;111;924109;-72
2021/05/26 03:45:39;;;;;;;4.92;1.93;;;;;;;16.83;65.01;101290.72;464258;112;923023;-71
2021/05/26 03:46:48;;;;;;;3.89;1.75;;;;;;;16.85;64.26;101297.69;464414;111;922687;-70
2021/05/26 03:47:53;;;;;;;7.65;2.05;;;;;;;16.85;64.09;101296.84;465740;111;924099;-73
2021/05/26 03:48:57;;;;;;;2.48;1.59;;;;;;;16.86;64.15;101298.53;456411;114;926054;-70
2021/05/26 03:50:03;;;;;;;4.56;1.96;;;;;;;16.86;64.10;101296.61;454269;113;922579;-71
2021/05/26 03:51:07;;;;;;;3.72;2.44;;;;;;;16.88;64.17;101301.86;461498;113;922748;-69
2021/05/26 03:52:12;;;;;;;2.76;2.28;;;;;;;16.91;64.33;101299.48;465265;111;922954;-72
2021/05/26 03:53:18;;;;;;;6.42;2.04;;;;;;;16.95;63.89;101297.92;467215;111;926601;-71
2021/05/26 03:54:23;;;;;;;3.55;2.32;;;;;;;16.98;63.57;101302.94;466684;111;924094;-72
2021/05/26 03:55:29;;;;;;;4.34;2.24;;;;;;;17.01;63.45;101298.88;465957;111;922526;-72
2021/05/26 03:56:36;;;;;;;5.04;2.57;;;;;;;17.04;63.40;101298.39;464766;111;931983;-71
2021/05/26 03:57:41;;;;;;;3.79;2.24;;;;;;;17.07;63.42;101296.02;466213;110;924787;-71
2021/05/26 03:58:48;;;;;;;4.39;1.79;;;;;;;17.12;63.19;101298.04;458862;113;924012;-69
2021/05/26 03:59:57;;;;;;;4.16;2.31;;;;;;;17.17;63.01;101298.16;459484;111;923204;-71
2021/05/26 04:01:00;;;;;;;4.18;2.25;;;;;;;17.21;62.69;101296.59;465826;111;922586;-72
2021/05/26 04:02:04;;;;;;;3.27;2.07;;;;;;;17.23;62.61;101297.19;466098;111;922517;-70
2021/05/26 04:03:09;;;;;;;5.72;2.46;;;;;;;17.27;62.50;101303.89;465312;111;923980;-70
2021/05/26 04:04:13;;;;;;;3.96;2.55;;;;;;;17.29;62.29;101298.14;464028;111;930538;-72
2021/05/26 04:05:17;;;;;;;4.69;2.72;;;;;;;17.30;62.42;101300.67;456830;114;922487;-70
2021/05/26 04:06:23;;;;;;;4.11;2.19;;;;;;;17.32;62.45;101301.25;449390;116;930717;-71
2021/05/26 04:07:27;;;;;;;3.03;2.58;;;;;;;17.34;62.54;101293.59;449439;114;922775;-71
2021/05/26 04:08:33;;;;;;;3.56;2.76;;;;;;;17.37;62.63;101295.00;457673;111;922582;-70
2021/05/26 04:09:37;;;;;;;5.52;2.83;;;;;;;17.42;62.58;101297.90;454199;114;923122;-72
2021/05/26 04:10:42;;;;;;;5.03;2.28;;;;;;;17.43;62.40;101294.03;456099;111;930399;-71
2021/05/26 04:11:50;;;;;;;5.52;3.17;;;;;;;17.44;62.40;101296.55;462922;111;922596;-72
2021/05/26 04:13:11;;;;;;;6.07;3.52;;;;;;;17.43;62.17;101294.03;450232;115;922689;-69
2021/05/26 04:14:16;;;;;;;5.28;3.07;;;;;;;17.41;62.43;101294.30;443020;118;922997;-74
2021/05/26 04:15:38;;;;;;;3.98;2.58;;;;;;;17.42;62.36;101297.90;453442;111;923193;-70
2021/05/26 04:17:01;;;;;;;4.24;2.87;;;;;;;17.44;62.39;101302.07;466022;111;923354;-71
2021/05/26 04:18:10;;;;;;;7.63;3.05;;;;;;;17.46;62.55;101304.59;465953;111;923006;-69
2021/05/26 04:19:16;;;;;;;10.04;2.65;;;;;;;17.51;62.54;101301.95;466129;111;922462;-73
2021/05/26 04:20:20;;;;;;;7.13;2.94;;;;;;;17.57;62.42;101297.38;467394;111;922684;-70
2021/05/26 04:21:24;;;;;;;5.72;2.22;;;;;;;17.62;62.41;101298.36;466602;111;930676;-69
2021/05/26 04:22:27;;;;;;;4.44;2.24;;;;;;;17.68;62.19;101297.38;465677;111;930355;-71
2021/05/26 04:23:33;;;;;;;3.87;2.31;;;;;;;17.75;61.86;101298.05;456245;113;931746;-72
2021/05/26 04:24:38;;;;;;;6.64;1.92;;;;;;;17.80;61.67;101298.19;466966;111;922563;-72
2021/05/26 04:25:48;;;;;;;6.61;2.12;;;;;;;17.87;61.55;101298.02;457361;113;923053;-70
2021/05/26 04:26:49;;;;;;;2.93;1.92;;;;;;;17.91;61.60;101304.74;456626;111;922688;-70
2021/05/26 04:27:53;;;;;;;5.14;1.91;;;;;;;17.97;61.78;101305.69;465614;111;923090;-72
2021/05/26 04:28:58;;;;;;;6.06;2.27;;;;;;;18.01;61.71;101301.34;465747;111;924008;-72
2021/05/26 04:30:05;;;;;;;5.02;2.09;;;;;;;18.05;61.72;101295.08;464683;111;923946;-71
2021/05/26 04:31:13;;;;;;;8.24;1.67;;;;;;;18.10;61.69;101305.37;464400;111;922091;-72
2021/05/26 04:32:18;;;;;;;3.40;1.81;;;;;;;18.14;61.44;101303.81;464967;111;923461;-73
2021/05/26 04:33:21;;;;;;;2.76;1.65;;;;;;;18.18;61.18;101302.22;461686;112;923090;-73
2021/05/26 04:34:27;;;;;;;3.74;1.52;;;;;;;18.23;60.91;101299.55;451823;115;923551;-74
2021/05/26 04:35:34;;;;;;;5.09;2.06;;;;;;;18.28;60.68;101296.89;452438;114;930265;-73
2021/05/26 04:36:40;;;;;;;4.27;1.82;;;;;;;18.34;60.34;101293.14;461503;112;924390;-72
2021/05/26 04:37:46;;;;;;;6.29;2.06;;;;;;;18.38;60.11;101299.83;460604;112;923124;-75
2021/05/26 04:38:51;;;;;;;4.09;2.01;;;;;;;18.42;60.07;101300.16;460876;112;924206;-72
2021/05/26 04:39:55;;;;;;;2.96;1.74;;;;;;;18.45;60.14;101291.39;454579;115;923078;-75
2021/05/26 04:41:05;;;;;;;9.85;2.95;;;;;;;18.49;60.20;101298.92;454947;112;924215;-73
2021/05/26 04:42:07;;;;;;;5.99;1.93;;;;;;;18.53;60.15;101294.56;450231;117;923016;-76
2021/05/26 04:43:13;;;;;;;7.53;2.37;;;;;;;18.58;59.96;101294.67;453899;115;923927;-77
2021/05/26 04:44:17;;;;;;;11.27;2.57;;;;;;;18.60;59.80;101298.04;445890;117;926190;-76
2021/05/26 04:45:22;;;;;;;7.44;2.73;;;;;;;18.66;59.91;101296.20;450882;116;924502;-75
2021/05/26 04:46:27;;;;;;;6.61;2.38;;;;;;;18.70;59.89;101289.92;440543;118;930755;-75
2021/05/26 04:47:31;;;;;;;11.75;2.30;;;;;;;18.73;59.81;101297.72;440646;118;925709;-77
2021/05/26 04:48:35;;;;;;;8.15;1.98;;;;;;;18.78;59.86;101293.36;444781;117;923502;-76
2021/05/26 04:49:39;;;;;;;5.24;1.91;;;;;;;18.81;59.83;101295.60;445410;117;932478;-75
2021/05/26 04:50:45;;;;;;;3.67;2.14;;;;;;;18.83;59.98;101296.20;442950;117;923159;-74
2021/05/26 04:51:50;;;;;;;5.44;1.92;;;;;;;18.85;60.14;101303.16;444450;117;923115;-74
2021/05/26 04:52:54;;;;;;;11.96;2.97;;;;;;;18.88;60.10;101296.28;444020;117;924172;-77
2021/05/26 04:53:59;;;;;;;9.16;2.50;;;;;;;18.90;59.93;101294.11;453222;115;922918;-75
2021/05/26 04:55:03;;;;;;;7.57;2.30;;;;;;;18.93;59.80;101297.19;454077;116;930486;-73
2021/05/26 04:56:07;;;;;;;7.03;2.10;;;;;;;18.96;60.00;101293.95;452402;115;923324;-78
2021/05/26 04:57:11;;;;;;;3.99;2.14;;;;;;;19.00;60.09;101288.73;459478;113;923067;-75
2021/05/26 04:58:15;;;;;;;4.63;2.23;;;;;;;19.03;60.17;101293.74;461136;112;923050;-73
2021/05/26 04:59:19;;;;;;;9.58;2.32;;;;;;;19.06;60.19;101293.25;461067;112;930548;-73
2021/05/26 05:00:24;;;;;;;5.38;2.39;;;;;;;19.08;60.34;101293.81;461125;112;922435;-73
2021/05/26 05:01:27;;;;;;;6.90;2.18;;;;;;;19.12;60.46;101295.84;460605;112;922602;-75
2021/05/26 05:02:32;;;;;;;6.20;2.30;;;;;;;19.18;60.20;101299.52;461269;112;924410;-75
2021/05/26 05:03:37;;;;;;;4.93;1.78;;;;;;;19.22;60.16;101300.67;460584;112;924318;-75